sensor_id;sensor_type;location;lat;lon;timestamp;pressure;altitude;pressure_sealevel;temperature;humidity
76229;BME280;65021;53.174;18.160;2023-02-15T00:01:36;102964.38;;;-0.24;87.08
76229;BME280;65021;53.174;18.160;2023-02-15T00:04:04;102958.99;;;-0.21;87.19
76229;BME280;65021;53.174;18.160;2023-02-15T00:06:31;102962.82;;;-0.19;87.02
76229;BME280;65021;53.174;18.160;2023-02-15T00:08:58;102956.74;;;-0.18;86.99
76229;BME280;65021;53.174;18.160;2023-02-15T00:11:25;102961.70;;;-0.14;86.99
76229;BME280;65021;53.174;18.160;2023-02-15T00:14:13;102961.31;;;-0.13;86.89
76229;BME280;65021;53.174;18.160;2023-02-15T00:16:42;102960.68;;;-0.13;86.90
76229;BME280;65021;53.174;18.160;2023-02-15T00:19:10;102957.91;;;-0.10;86.97
76229;BME280;65021;53.174;18.160;2023-02-15T00:21:38;102959.08;;;-0.06;87.04
76229;BME280;65021;53.174;18.160;2023-02-15T00:24:07;102960.08;;;-0.03;87.00
76229;BME280;65021;53.174;18.160;2023-02-15T00:26:35;102954.31;;;-0.02;87.01
76229;BME280;65021;53.174;18.160;2023-02-15T00:29:02;102957.39;;;-0.01;86.89
76229;BME280;65021;53.174;18.160;2023-02-15T00:31:30;102959.63;;;0.00;86.91
76229;BME280;65021;53.174;18.160;2023-02-15T00:34:05;102958.01;;;-0.00;86.86
76229;BME280;65021;53.174;18.160;2023-02-15T00:36:32;102952.98;;;-0.01;86.82
76229;BME280;65021;53.174;18.160;2023-02-15T00:38:59;102952.22;;;-0.00;86.86
76229;BME280;65021;53.174;18.160;2023-02-15T00:41:26;102950.73;;;0.02;86.74
76229;BME280;65021;53.174;18.160;2023-02-15T00:43:52;102947.39;;;0.03;86.78
76229;BME280;65021;53.174;18.160;2023-02-15T00:46:19;102944.34;;;0.03;86.81
76229;BME280;65021;53.174;18.160;2023-02-15T00:48:45;102943.67;;;0.02;86.80
76229;BME280;65021;53.174;18.160;2023-02-15T00:51:12;102948.91;;;0.05;86.90
76229;BME280;65021;53.174;18.160;2023-02-15T00:53:39;102951.04;;;0.10;86.87
76229;BME280;65021;53.174;18.160;2023-02-15T00:56:05;102948.48;;;0.10;86.79
76229;BME280;65021;53.174;18.160;2023-02-15T00:58:32;102944.32;;;0.12;86.81
76229;BME280;65021;53.174;18.160;2023-02-15T01:01:07;102938.27;;;0.14;86.86
76229;BME280;65021;53.174;18.160;2023-02-15T01:03:34;102937.02;;;0.16;86.69
76229;BME280;65021;53.174;18.160;2023-02-15T01:06:02;102935.73;;;0.19;86.75
76229;BME280;65021;53.174;18.160;2023-02-15T01:08:29;102931.61;;;0.22;86.80
76229;BME280;65021;53.174;18.160;2023-02-15T01:10:56;102933.05;;;0.22;86.67
76229;BME280;65021;53.174;18.160;2023-02-15T01:13:23;102934.80;;;0.23;86.80
76229;BME280;65021;53.174;18.160;2023-02-15T01:15:54;102932.88;;;0.22;86.84
76229;BME280;65021;53.174;18.160;2023-02-15T01:18:21;102935.92;;;0.23;86.82
76229;BME280;65021;53.174;18.160;2023-02-15T01:20:48;102939.63;;;0.22;86.82
76229;BME280;65021;53.174;18.160;2023-02-15T01:23:15;102938.45;;;0.23;86.75
76229;BME280;65021;53.174;18.160;2023-02-15T01:25:41;102937.41;;;0.22;86.72
76229;BME280;65021;53.174;18.160;2023-02-15T01:28:08;102934.29;;;0.23;86.80
76229;BME280;65021;53.174;18.160;2023-02-15T01:30:34;102932.19;;;0.23;86.75
76229;BME280;65021;53.174;18.160;2023-02-15T01:33:01;102924.39;;;0.25;86.84
76229;BME280;65021;53.174;18.160;2023-02-15T01:35:28;102928.41;;;0.27;86.84
76229;BME280;65021;53.174;18.160;2023-02-15T01:37:56;102921.77;;;0.31;86.93
76229;BME280;65021;53.174;18.160;2023-02-15T01:40:23;102918.86;;;0.32;86.80
76229;BME280;65021;53.174;18.160;2023-02-15T01:42:54;102910.42;;;0.35;86.83
76229;BME280;65021;53.174;18.160;2023-02-15T01:45:30;102906.33;;;0.38;86.91
76229;BME280;65021;53.174;18.160;2023-02-15T01:50:40;102903.23;;;0.41;86.77
76229;BME280;65021;53.174;18.160;2023-02-15T01:53:10;102898.73;;;0.39;86.71
76229;BME280;65021;53.174;18.160;2023-02-15T01:56:00;102899.59;;;0.38;86.67
76229;BME280;65021;53.174;18.160;2023-02-15T01:58:29;102901.94;;;0.39;86.64
76229;BME280;65021;53.174;18.160;2023-02-15T02:00:58;102896.11;;;0.41;86.78
76229;BME280;65021;53.174;18.160;2023-02-15T02:06:15;102891.37;;;0.43;86.76
76229;BME280;65021;53.174;18.160;2023-02-15T02:08:42;102885.67;;;0.45;86.74
76229;BME280;65021;53.174;18.160;2023-02-15T02:11:13;102884.69;;;0.48;86.83
76229;BME280;65021;53.174;18.160;2023-02-15T02:13:41;102884.95;;;0.51;86.85
76229;BME280;65021;53.174;18.160;2023-02-15T02:16:23;102889.83;;;0.54;86.83
76229;BME280;65021;53.174;18.160;2023-02-15T02:25:03;102886.80;;;0.58;86.85
76229;BME280;65021;53.174;18.160;2023-02-15T02:27:37;102882.72;;;0.58;86.83
76229;BME280;65021;53.174;18.160;2023-02-15T02:43:47;102887.57;;;0.57;86.96
76229;BME280;65021;53.174;18.160;2023-02-15T02:46:37;102888.23;;;0.58;87.02
76229;BME280;65021;53.174;18.160;2023-02-15T02:49:05;102885.08;;;0.56;86.96
76229;BME280;65021;53.174;18.160;2023-02-15T02:51:32;102880.54;;;0.54;86.89
76229;BME280;65021;53.174;18.160;2023-02-15T02:54:00;102881.39;;;0.53;86.92
76229;BME280;65021;53.174;18.160;2023-02-15T02:56:30;102878.88;;;0.52;86.85
76229;BME280;65021;53.174;18.160;2023-02-15T02:59:04;102880.73;;;0.52;86.84
76229;BME280;65021;53.174;18.160;2023-02-15T03:04:31;102873.59;;;0.50;86.82
76229;BME280;65021;53.174;18.160;2023-02-15T03:07:05;102869.88;;;0.49;86.91
76229;BME280;65021;53.174;18.160;2023-02-15T03:09:36;102866.92;;;0.49;86.86
76229;BME280;65021;53.174;18.160;2023-02-15T03:12:20;102862.67;;;0.50;86.76
76229;BME280;65021;53.174;18.160;2023-02-15T03:14:51;102861.92;;;0.48;86.92
76229;BME280;65021;53.174;18.160;2023-02-15T03:17:21;102857.64;;;0.47;86.95
76229;BME280;65021;53.174;18.160;2023-02-15T03:19:51;102856.88;;;0.47;86.99
76229;BME280;65021;53.174;18.160;2023-02-15T03:22:28;102857.56;;;0.48;87.09
76229;BME280;65021;53.174;18.160;2023-02-15T03:25:00;102859.65;;;0.51;87.09
76229;BME280;65021;53.174;18.160;2023-02-15T03:27:38;102853.36;;;0.54;87.04
76229;BME280;65021;53.174;18.160;2023-02-15T03:30:08;102854.20;;;0.57;87.01
76229;BME280;65021;53.174;18.160;2023-02-15T03:32:36;102850.04;;;0.54;87.00
76229;BME280;65021;53.174;18.160;2023-02-15T03:35:04;102850.63;;;0.52;87.01
76229;BME280;65021;53.174;18.160;2023-02-15T03:37:55;102856.41;;;0.50;87.01
76229;BME280;65021;53.174;18.160;2023-02-15T03:45:36;102858.06;;;0.46;87.10
76229;BME280;65021;53.174;18.160;2023-02-15T03:48:06;102856.48;;;0.46;87.01
76229;BME280;65021;53.174;18.160;2023-02-15T03:50:36;102853.77;;;0.45;87.00
76229;BME280;65021;53.174;18.160;2023-02-15T03:53:23;102847.95;;;0.47;87.08
76229;BME280;65021;53.174;18.160;2023-02-15T03:55:53;102846.96;;;0.48;87.10
76229;BME280;65021;53.174;18.160;2023-02-15T03:58:20;102852.44;;;0.48;87.03
76229;BME280;65021;53.174;18.160;2023-02-15T04:01:15;102853.23;;;0.47;86.97
76229;BME280;65021;53.174;18.160;2023-02-15T04:04:11;102851.14;;;0.46;86.99
76229;BME280;65021;53.174;18.160;2023-02-15T04:06:40;102856.00;;;0.45;86.99
76229;BME280;65021;53.174;18.160;2023-02-15T04:09:06;102855.37;;;0.41;86.88
76229;BME280;65021;53.174;18.160;2023-02-15T04:11:51;102854.16;;;0.38;87.01
76229;BME280;65021;53.174;18.160;2023-02-15T04:14:18;102856.83;;;0.35;86.94
76229;BME280;65021;53.174;18.160;2023-02-15T04:17:06;102856.85;;;0.32;87.03
76229;BME280;65021;53.174;18.160;2023-02-15T04:19:33;102850.93;;;0.32;87.07
76229;BME280;65021;53.174;18.160;2023-02-15T04:22:18;102846.73;;;0.29;87.11
76229;BME280;65021;53.174;18.160;2023-02-15T04:25:03;102847.00;;;0.26;86.92
76229;BME280;65021;53.174;18.160;2023-02-15T04:27:42;102844.63;;;0.24;87.03
76229;BME280;65021;53.174;18.160;2023-02-15T04:30:10;102848.46;;;0.22;87.01
76229;BME280;65021;53.174;18.160;2023-02-15T04:32:37;102843.70;;;0.20;87.10
76229;BME280;65021;53.174;18.160;2023-02-15T04:35:05;102849.94;;;0.20;87.07
76229;BME280;65021;53.174;18.160;2023-02-15T04:37:32;102844.61;;;0.16;87.05
76229;BME280;65021;53.174;18.160;2023-02-15T04:39:59;102847.55;;;0.14;87.07
76229;BME280;65021;53.174;18.160;2023-02-15T04:42:26;102844.39;;;0.12;86.91
76229;BME280;65021;53.174;18.160;2023-02-15T04:44:54;102839.60;;;0.11;87.06
76229;BME280;65021;53.174;18.160;2023-02-15T04:47:20;102841.09;;;0.10;87.17
76229;BME280;65021;53.174;18.160;2023-02-15T04:49:47;102836.36;;;0.10;87.17
76229;BME280;65021;53.174;18.160;2023-02-15T04:52:13;102830.05;;;0.11;87.10
76229;BME280;65021;53.174;18.160;2023-02-15T04:54:40;102833.58;;;0.11;87.07
76229;BME280;65021;53.174;18.160;2023-02-15T04:57:07;102830.23;;;0.12;87.03
76229;BME280;65021;53.174;18.160;2023-02-15T04:59:33;102829.92;;;0.13;87.08
76229;BME280;65021;53.174;18.160;2023-02-15T05:02:00;102830.30;;;0.11;87.15
76229;BME280;65021;53.174;18.160;2023-02-15T05:04:26;102826.38;;;0.10;87.24
76229;BME280;65021;53.174;18.160;2023-02-15T05:06:53;102825.19;;;0.08;87.15
76229;BME280;65021;53.174;18.160;2023-02-15T05:09:20;102825.80;;;0.08;87.16
76229;BME280;65021;53.174;18.160;2023-02-15T05:11:47;102823.49;;;0.07;87.15
76229;BME280;65021;53.174;18.160;2023-02-15T05:14:13;102827.56;;;0.09;87.24
76229;BME280;65021;53.174;18.160;2023-02-15T05:16:40;102822.30;;;0.10;87.24
76229;BME280;65021;53.174;18.160;2023-02-15T05:19:06;102826.40;;;0.11;87.22
76229;BME280;65021;53.174;18.160;2023-02-15T05:21:33;102826.27;;;0.11;87.22
76229;BME280;65021;53.174;18.160;2023-02-15T05:23:59;102827.79;;;0.10;87.15
76229;BME280;65021;53.174;18.160;2023-02-15T05:26:26;102831.81;;;0.10;87.32
76229;BME280;65021;53.174;18.160;2023-02-15T05:29:11;102831.05;;;0.10;87.21
76229;BME280;65021;53.174;18.160;2023-02-15T05:31:38;102831.21;;;0.11;87.32
76229;BME280;65021;53.174;18.160;2023-02-15T05:34:04;102828.59;;;0.11;87.28
76229;BME280;65021;53.174;18.160;2023-02-15T05:36:31;102829.23;;;0.13;87.31
76229;BME280;65021;53.174;18.160;2023-02-15T05:38:57;102830.27;;;0.13;87.21
76229;BME280;65021;53.174;18.160;2023-02-15T05:41:24;102828.80;;;0.11;87.23
76229;BME280;65021;53.174;18.160;2023-02-15T05:43:51;102830.75;;;0.12;87.15
76229;BME280;65021;53.174;18.160;2023-02-15T05:46:21;102833.90;;;0.11;87.20
76229;BME280;65021;53.174;18.160;2023-02-15T05:48:47;102832.83;;;0.11;87.13
76229;BME280;65021;53.174;18.160;2023-02-15T05:51:14;102829.55;;;0.11;87.19
76229;BME280;65021;53.174;18.160;2023-02-15T05:53:42;102833.38;;;0.11;87.16
76229;BME280;65021;53.174;18.160;2023-02-15T05:56:10;102832.68;;;0.13;87.16
76229;BME280;65021;53.174;18.160;2023-02-15T05:58:38;102827.80;;;0.14;87.14
76229;BME280;65021;53.174;18.160;2023-02-15T06:01:14;102827.10;;;0.16;87.15
76229;BME280;65021;53.174;18.160;2023-02-15T06:03:41;102829.40;;;0.17;87.18
76229;BME280;65021;53.174;18.160;2023-02-15T06:06:08;102829.05;;;0.17;87.12
76229;BME280;65021;53.174;18.160;2023-02-15T06:08:35;102824.59;;;0.18;87.04
76229;BME280;65021;53.174;18.160;2023-02-15T06:11:03;102829.45;;;0.20;87.16
76229;BME280;65021;53.174;18.160;2023-02-15T06:13:30;102825.64;;;0.22;87.13
76229;BME280;65021;53.174;18.160;2023-02-15T06:15:57;102826.66;;;0.23;87.10
76229;BME280;65021;53.174;18.160;2023-02-15T06:18:23;102825.21;;;0.23;86.99
76229;BME280;65021;53.174;18.160;2023-02-15T06:20:50;102828.13;;;0.23;87.04
76229;BME280;65021;53.174;18.160;2023-02-15T06:23:16;102825.06;;;0.23;87.16
76229;BME280;65021;53.174;18.160;2023-02-15T06:25:45;102829.52;;;0.24;87.12
76229;BME280;65021;53.174;18.160;2023-02-15T06:28:12;102831.62;;;0.25;87.22
76229;BME280;65021;53.174;18.160;2023-02-15T06:30:39;102833.91;;;0.26;87.15
76229;BME280;65021;53.174;18.160;2023-02-15T06:33:06;102833.14;;;0.28;87.20
76229;BME280;65021;53.174;18.160;2023-02-15T06:35:32;102832.70;;;0.31;87.13
76229;BME280;65021;53.174;18.160;2023-02-15T06:37:59;102827.79;;;0.34;87.21
76229;BME280;65021;53.174;18.160;2023-02-15T06:40:25;102829.98;;;0.36;87.05
76229;BME280;65021;53.174;18.160;2023-02-15T06:42:52;102825.45;;;0.38;87.17
76229;BME280;65021;53.174;18.160;2023-02-15T06:45:18;102830.34;;;0.40;87.25
76229;BME280;65021;53.174;18.160;2023-02-15T06:47:45;102822.69;;;0.42;87.13
76229;BME280;65021;53.174;18.160;2023-02-15T06:50:11;102824.96;;;0.45;87.15
76229;BME280;65021;53.174;18.160;2023-02-15T06:52:38;102822.56;;;0.47;87.22
76229;BME280;65021;53.174;18.160;2023-02-15T06:55:05;102826.07;;;0.49;87.10
76229;BME280;65021;53.174;18.160;2023-02-15T06:57:32;102828.39;;;0.52;86.98
76229;BME280;65021;53.174;18.160;2023-02-15T06:59:59;102824.63;;;0.55;87.09
76229;BME280;65021;53.174;18.160;2023-02-15T07:02:26;102827.63;;;0.58;86.94
76229;BME280;65021;53.174;18.160;2023-02-15T07:04:52;102823.20;;;0.61;86.89
76229;BME280;65021;53.174;18.160;2023-02-15T07:07:19;102820.45;;;0.66;86.86
76229;BME280;65021;53.174;18.160;2023-02-15T07:09:45;102816.85;;;0.70;86.87
76229;BME280;65021;53.174;18.160;2023-02-15T07:12:12;102813.64;;;0.73;86.84
76229;BME280;65021;53.174;18.160;2023-02-15T07:14:57;102802.56;;;0.74;86.79
76229;BME280;65021;53.174;18.160;2023-02-15T07:17:25;102798.29;;;0.77;86.76
76229;BME280;65021;53.174;18.160;2023-02-15T07:19:54;102794.41;;;0.80;86.73
76229;BME280;65021;53.174;18.160;2023-02-15T07:22:21;102790.29;;;0.83;86.66
76229;BME280;65021;53.174;18.160;2023-02-15T07:24:48;102787.86;;;0.86;86.68
76229;BME280;65021;53.174;18.160;2023-02-15T07:27:15;102786.67;;;0.89;86.57
76229;BME280;65021;53.174;18.160;2023-02-15T07:29:42;102788.86;;;0.93;86.69
76229;BME280;65021;53.174;18.160;2023-02-15T07:32:10;102789.86;;;0.96;86.76
76229;BME280;65021;53.174;18.160;2023-02-15T07:34:37;102790.98;;;1.00;86.73
76229;BME280;65021;53.174;18.160;2023-02-15T07:37:04;102791.80;;;1.03;86.73
76229;BME280;65021;53.174;18.160;2023-02-15T07:39:30;102794.13;;;1.05;86.63
76229;BME280;65021;53.174;18.160;2023-02-15T07:41:57;102788.73;;;1.11;86.64
76229;BME280;65021;53.174;18.160;2023-02-15T07:44:23;102789.22;;;1.13;86.48
76229;BME280;65021;53.174;18.160;2023-02-15T07:46:50;102789.90;;;1.18;86.52
76229;BME280;65021;53.174;18.160;2023-02-15T07:49:16;102786.59;;;1.24;86.53
76229;BME280;65021;53.174;18.160;2023-02-15T07:51:43;102780.08;;;1.30;86.41
76229;BME280;65021;53.174;18.160;2023-02-15T07:54:09;102775.96;;;1.37;86.49
76229;BME280;65021;53.174;18.160;2023-02-15T07:56:36;102777.73;;;1.46;86.46
76229;BME280;65021;53.174;18.160;2023-02-15T07:59:03;102773.85;;;1.52;86.22
76229;BME280;65021;53.174;18.160;2023-02-15T08:01:36;102770.95;;;1.55;86.25
76229;BME280;65021;53.174;18.160;2023-02-15T08:04:04;102767.57;;;1.63;86.29
76229;BME280;65021;53.174;18.160;2023-02-15T08:06:33;102763.21;;;1.70;86.22
76229;BME280;65021;53.174;18.160;2023-02-15T08:09:06;102757.92;;;1.78;86.17
76229;BME280;65021;53.174;18.160;2023-02-15T08:11:35;102750.61;;;1.87;86.12
76229;BME280;65021;53.174;18.160;2023-02-15T08:14:07;102746.75;;;1.94;86.04
76229;BME280;65021;53.174;18.160;2023-02-15T08:16:40;102743.03;;;2.00;86.05
76229;BME280;65021;53.174;18.160;2023-02-15T08:19:08;102738.94;;;2.09;85.89
76229;BME280;65021;53.174;18.160;2023-02-15T08:21:36;102731.65;;;2.20;86.11
76229;BME280;65021;53.174;18.160;2023-02-15T08:24:04;102730.34;;;2.24;85.95
76229;BME280;65021;53.174;18.160;2023-02-15T08:26:32;102727.37;;;2.36;85.88
76229;BME280;65021;53.174;18.160;2023-02-15T08:28:59;102727.16;;;2.49;85.79
76229;BME280;65021;53.174;18.160;2023-02-15T08:31:26;102724.39;;;2.63;85.65
76229;BME280;65021;53.174;18.160;2023-02-15T08:33:55;102723.24;;;2.75;85.44
76229;BME280;65021;53.174;18.160;2023-02-15T08:36:24;102727.27;;;2.88;85.41
76229;BME280;65021;53.174;18.160;2023-02-15T08:38:51;102721.02;;;2.99;85.34
76229;BME280;65021;53.174;18.160;2023-02-15T08:43:52;102724.44;;;3.18;85.21
76229;BME280;65021;53.174;18.160;2023-02-15T08:46:20;102718.41;;;3.24;84.96
76229;BME280;65021;53.174;18.160;2023-02-15T08:48:47;102714.89;;;3.26;84.91
76229;BME280;65021;53.174;18.160;2023-02-15T08:51:15;102711.81;;;3.25;85.04
76229;BME280;65021;53.174;18.160;2023-02-15T08:53:44;102713.04;;;3.22;85.12
76229;BME280;65021;53.174;18.160;2023-02-15T08:56:11;102706.70;;;3.24;85.10
76229;BME280;65021;53.174;18.160;2023-02-15T08:58:38;102697.60;;;3.28;85.20
76229;BME280;65021;53.174;18.160;2023-02-15T09:01:16;102695.17;;;3.35;85.32
76229;BME280;65021;53.174;18.160;2023-02-15T09:03:50;102697.75;;;3.42;85.14
76229;BME280;65021;53.174;18.160;2023-02-15T09:06:21;102697.27;;;3.50;85.01
76229;BME280;65021;53.174;18.160;2023-02-15T09:08:49;102697.70;;;3.59;85.04
76229;BME280;65021;53.174;18.160;2023-02-15T09:11:21;102696.29;;;3.65;84.90
76229;BME280;65021;53.174;18.160;2023-02-15T09:13:56;102693.36;;;3.72;84.83
76229;BME280;65021;53.174;18.160;2023-02-15T09:16:25;102696.43;;;3.83;84.98
76229;BME280;65021;53.174;18.160;2023-02-15T09:18:53;102691.21;;;3.91;84.77
76229;BME280;65021;53.174;18.160;2023-02-15T09:21:22;102692.67;;;3.98;84.51
76229;BME280;65021;53.174;18.160;2023-02-15T09:23:54;102690.10;;;4.00;84.17
76229;BME280;65021;53.174;18.160;2023-02-15T09:26:23;102686.14;;;4.07;84.31
76229;BME280;65021;53.174;18.160;2023-02-15T09:28:55;102675.23;;;4.14;84.40
76229;BME280;65021;53.174;18.160;2023-02-15T09:31:25;102674.95;;;4.23;83.93
76229;BME280;65021;53.174;18.160;2023-02-15T09:33:53;102672.50;;;4.30;84.10
76229;BME280;65021;53.174;18.160;2023-02-15T09:36:25;102674.04;;;4.42;84.08
76229;BME280;65021;53.174;18.160;2023-02-15T09:38:58;102669.80;;;4.57;84.03
76229;BME280;65021;53.174;18.160;2023-02-15T09:44:27;102673.58;;;4.76;83.70
76229;BME280;65021;53.174;18.160;2023-02-15T09:50:15;102664.80;;;4.79;82.24
76229;BME280;65021;53.174;18.160;2023-02-15T10:01:19;102653.09;;;4.87;81.96
76229;BME280;65021;53.174;18.160;2023-02-15T10:06:50;102646.41;;;4.82;81.89
76229;BME280;65021;53.174;18.160;2023-02-15T10:09:44;102642.65;;;4.80;81.37
76229;BME280;65021;53.174;18.160;2023-02-15T10:14:56;102634.38;;;4.74;81.45
76229;BME280;65021;53.174;18.160;2023-02-15T10:28:26;102628.16;;;4.60;81.29
76229;BME280;65021;53.174;18.160;2023-02-15T10:31:51;102626.75;;;4.58;80.89
76229;BME280;65021;53.174;18.160;2023-02-15T10:34:16;102632.36;;;4.55;80.76
76229;BME280;65021;53.174;18.160;2023-02-15T10:39:49;102627.69;;;4.54;80.91
76229;BME280;65021;53.174;18.160;2023-02-15T10:50:24;102613.11;;;4.43;79.80
76229;BME280;65021;53.174;18.160;2023-02-15T10:55:56;102613.25;;;4.38;78.99
76229;BME280;65021;53.174;18.160;2023-02-15T11:01:13;102613.00;;;4.47;79.77
76229;BME280;65021;53.174;18.160;2023-02-15T11:06:31;102608.25;;;4.73;79.69
76229;BME280;65021;53.174;18.160;2023-02-15T11:09:04;102605.55;;;4.85;79.87
76229;BME280;65021;53.174;18.160;2023-02-15T11:11:42;102603.25;;;4.91;79.70
76229;BME280;65021;53.174;18.160;2023-02-15T11:14:15;102596.00;;;4.93;78.93
76229;BME280;65021;53.174;18.160;2023-02-15T11:16:51;102592.69;;;4.93;79.22
76229;BME280;65021;53.174;18.160;2023-02-15T11:19:27;102591.27;;;4.93;79.19
76229;BME280;65021;53.174;18.160;2023-02-15T11:22:02;102592.48;;;4.93;79.36
76229;BME280;65021;53.174;18.160;2023-02-15T11:24:30;102587.84;;;4.98;79.41
76229;BME280;65021;53.174;18.160;2023-02-15T11:27:03;102586.63;;;5.03;77.51
76229;BME280;65021;53.174;18.160;2023-02-15T11:29:38;102580.06;;;5.12;78.10
76229;BME280;65021;53.174;18.160;2023-02-15T11:32:22;102574.02;;;5.21;78.18
76229;BME280;65021;53.174;18.160;2023-02-15T11:35:29;102567.27;;;5.32;78.44
76229;BME280;65021;53.174;18.160;2023-02-15T11:38:06;102567.84;;;5.43;78.03
76229;BME280;65021;53.174;18.160;2023-02-15T11:40:45;102562.77;;;5.51;78.13
76229;BME280;65021;53.174;18.160;2023-02-15T11:43:23;102556.49;;;5.54;77.96
76229;BME280;65021;53.174;18.160;2023-02-15T11:45:52;102550.29;;;5.56;77.58
76229;BME280;65021;53.174;18.160;2023-02-15T11:48:20;102547.05;;;5.55;77.65
76229;BME280;65021;53.174;18.160;2023-02-15T11:50:47;102545.19;;;5.55;77.76
76229;BME280;65021;53.174;18.160;2023-02-15T11:53:19;102546.91;;;5.58;77.77
76229;BME280;65021;53.174;18.160;2023-02-15T11:55:49;102545.16;;;5.62;77.70
76229;BME280;65021;53.174;18.160;2023-02-15T11:58:43;102548.66;;;5.58;76.64
76229;BME280;65021;53.174;18.160;2023-02-15T12:03:54;102547.85;;;5.49;76.46
76229;BME280;65021;53.174;18.160;2023-02-15T12:06:29;102546.45;;;5.46;76.06
76229;BME280;65021;53.174;18.160;2023-02-15T12:09:07;102545.61;;;5.42;75.93
76229;BME280;65021;53.174;18.160;2023-02-15T12:11:40;102538.71;;;5.46;76.09
76229;BME280;65021;53.174;18.160;2023-02-15T12:14:09;102535.17;;;5.46;75.62
76229;BME280;65021;53.174;18.160;2023-02-15T12:16:48;102534.08;;;5.48;76.41
76229;BME280;65021;53.174;18.160;2023-02-15T12:19:37;102530.22;;;5.57;75.95
76229;BME280;65021;53.174;18.160;2023-02-15T12:22:19;102526.51;;;5.61;75.20
76229;BME280;65021;53.174;18.160;2023-02-15T12:24:48;102527.86;;;5.67;75.78
76229;BME280;65021;53.174;18.160;2023-02-15T12:27:20;102525.27;;;5.68;75.83
76229;BME280;65021;53.174;18.160;2023-02-15T12:29:51;102518.48;;;5.70;75.62
76229;BME280;65021;53.174;18.160;2023-02-15T12:32:52;102515.31;;;5.69;75.67
76229;BME280;65021;53.174;18.160;2023-02-15T12:35:31;102511.80;;;5.69;75.85
76229;BME280;65021;53.174;18.160;2023-02-15T12:40:37;102504.71;;;5.76;76.08
76229;BME280;65021;53.174;18.160;2023-02-15T12:43:04;102503.89;;;5.72;76.13
76229;BME280;65021;53.174;18.160;2023-02-15T12:45:37;102503.23;;;5.67;75.95
76229;BME280;65021;53.174;18.160;2023-02-15T12:48:16;102498.71;;;5.64;75.70
76229;BME280;65021;53.174;18.160;2023-02-15T12:50:50;102495.27;;;5.51;75.33
76229;BME280;65021;53.174;18.160;2023-02-15T12:53:21;102487.02;;;5.36;75.52
76229;BME280;65021;53.174;18.160;2023-02-15T12:55:56;102488.48;;;5.33;75.61
76229;BME280;65021;53.174;18.160;2023-02-15T12:58:34;102485.08;;;5.40;75.56
76229;BME280;65021;53.174;18.160;2023-02-15T13:01:12;102479.70;;;5.42;75.46
76229;BME280;65021;53.174;18.160;2023-02-15T13:03:59;102480.23;;;5.46;75.76
76229;BME280;65021;53.174;18.160;2023-02-15T13:06:28;102472.61;;;5.43;75.22
76229;BME280;65021;53.174;18.160;2023-02-15T13:11:38;102468.22;;;5.32;75.24
76229;BME280;65021;53.174;18.160;2023-02-15T13:14:28;102466.63;;;5.25;75.52
76229;BME280;65021;53.174;18.160;2023-02-15T13:16:58;102462.13;;;5.14;74.95
76229;BME280;65021;53.174;18.160;2023-02-15T13:21:54;102462.34;;;5.22;75.60
76229;BME280;65021;53.174;18.160;2023-02-15T13:24:28;102460.30;;;5.30;75.12
76229;BME280;65021;53.174;18.160;2023-02-15T13:26:57;102456.65;;;5.40;75.24
76229;BME280;65021;53.174;18.160;2023-02-15T13:29:30;102451.13;;;5.46;75.42
76229;BME280;65021;53.174;18.160;2023-02-15T13:32:04;102454.09;;;5.51;75.14
76229;BME280;65021;53.174;18.160;2023-02-15T13:34:35;102452.76;;;5.56;75.06
76229;BME280;65021;53.174;18.160;2023-02-15T13:37:20;102451.31;;;5.56;74.89
76229;BME280;65021;53.174;18.160;2023-02-15T13:39:59;102448.06;;;5.52;74.93
76229;BME280;65021;53.174;18.160;2023-02-15T13:42:40;102443.84;;;5.49;75.21
76229;BME280;65021;53.174;18.160;2023-02-15T13:55:52;102444.66;;;5.31;75.23
76229;BME280;65021;53.174;18.160;2023-02-15T14:01:15;102436.64;;;5.23;75.32
76229;BME280;65021;53.174;18.160;2023-02-15T14:09:36;102426.36;;;5.18;75.52
76229;BME280;65021;53.174;18.160;2023-02-15T14:20:01;102414.50;;;5.05;75.60
76229;BME280;65021;53.174;18.160;2023-02-15T14:22:35;102413.36;;;5.02;75.21
76229;BME280;65021;53.174;18.160;2023-02-15T14:25:15;102418.34;;;4.93;75.25
76229;BME280;65021;53.174;18.160;2023-02-15T14:27:59;102418.77;;;4.83;75.21
76229;BME280;65021;53.174;18.160;2023-02-15T14:30:38;102421.74;;;4.75;75.46
76229;BME280;65021;53.174;18.160;2023-02-15T14:35:42;102413.15;;;4.68;75.69
76229;BME280;65021;53.174;18.160;2023-02-15T14:49:04;102410.39;;;4.22;75.77
76229;BME280;65021;53.174;18.160;2023-02-15T14:54:11;102404.61;;;4.12;75.85
76229;BME280;65021;53.174;18.160;2023-02-15T15:02:19;102399.64;;;3.91;75.99
76229;BME280;65021;53.174;18.160;2023-02-15T15:05:14;102395.86;;;3.85;76.08
76229;BME280;65021;53.174;18.160;2023-02-15T15:08:03;102395.23;;;3.83;76.18
76229;BME280;65021;53.174;18.160;2023-02-15T15:10:40;102393.54;;;3.78;76.09
76229;BME280;65021;53.174;18.160;2023-02-15T15:19:09;102387.83;;;3.61;76.48
76229;BME280;65021;53.174;18.160;2023-02-15T15:35:57;102369.64;;;3.34;
76229;BME280;65021;53.174;18.160;2023-02-15T15:41:46;102369.06;;;3.27;77.21
76229;BME280;65021;53.174;18.160;2023-02-15T15:49:47;102368.77;;;3.21;77.69
76229;BME280;65021;53.174;18.160;2023-02-15T15:52:16;102363.40;;;3.20;77.49
76229;BME280;65021;53.174;18.160;2023-02-15T15:54:44;102367.64;;;3.22;77.44
76229;BME280;65021;53.174;18.160;2023-02-15T15:57:19;102360.23;;;3.22;77.60
76229;BME280;65021;53.174;18.160;2023-02-15T15:59:50;102356.67;;;3.20;77.70
76229;BME280;65021;53.174;18.160;2023-02-15T16:02:17;102347.09;;;3.19;77.75
76229;BME280;65021;53.174;18.160;2023-02-15T16:04:44;102344.55;;;3.15;77.94
76229;BME280;65021;53.174;18.160;2023-02-15T16:12:22;102344.98;;;3.04;78.21